Time;durP1;ratioP1;P1;durP2;ratioP2;P2;SDS_P1;SDS_P2;PMS_P1;PMS_P2;Temp;Humidity;BMP_temperature;BMP_pressure;BME280_temperature;BME280_humidity;BME280_pressure;Samples;Min_cycle;Max_cycle;Signal;HPM_P1;HPM_P2
2022/05/26 00:01:44;;;;;;;7.32;1.92;;;;;;;22.00;38.81;101442.88;5071475;28;20032;-74
2022/05/26 00:04:10;;;;;;;5.20;1.40;;;;;;;22.16;38.40;101453.88;5072312;28;20043;-73
2022/05/26 00:06:36;;;;;;;8.05;1.58;;;;;;;22.16;38.40;101451.09;5072145;28;20467;-73
2022/05/26 00:09:01;;;;;;;5.85;1.50;;;;;;;22.17;38.41;101457.44;5072294;28;20439;-74
2022/05/26 00:11:31;;;;;;;6.10;1.65;;;;;;;22.18;38.48;101459.84;5072143;28;20559;-74
2022/05/26 00:13:57;;;;;;;8.35;1.83;;;;;;;22.26;38.18;101446.84;5071111;28;20444;-74
2022/05/26 00:16:23;;;;;;;6.88;2.25;;;;;;;22.25;38.50;101448.03;5072307;28;20032;-73
2022/05/26 00:18:48;;;;;;;7.63;1.85;;;;;;;22.26;38.34;101444.84;5071907;28;20086;-74
2022/05/26 00:21:15;;;;;;;6.95;1.50;;;;;;;22.21;38.65;101455.50;5071214;28;20475;-74
2022/05/26 00:23:41;;;;;;;9.00;2.42;;;;;;;22.21;38.78;101461.06;5071948;28;20097;-73
2022/05/26 00:26:06;;;;;;;6.70;2.40;;;;;;;22.12;38.81;101451.00;5070543;28;20044;-73
2022/05/26 00:28:33;;;;;;;7.13;2.08;;;;;;;22.12;38.80;101459.38;5072051;28;20580;-74
2022/05/26 00:30:59;;;;;;;7.88;1.90;;;;;;;22.34;38.45;101459.69;5070764;28;20120;-73
2022/05/26 00:33:26;;;;;;;5.63;1.77;;;;;;;22.36;38.33;101454.53;5071712;28;20028;-76
2022/05/26 00:35:52;;;;;;;4.88;1.90;;;;;;;22.29;38.59;101451.66;5071879;28;20032;-72
2022/05/26 00:38:18;;;;;;;3.55;1.58;;;;;;;22.43;38.30;101457.41;5072027;28;20379;-74
2022/05/26 00:40:45;;;;;;;5.28;1.75;;;;;;;22.42;38.46;101451.06;5070873;28;20074;-73
2022/05/26 00:43:11;;;;;;;9.43;2.33;;;;;;;22.44;38.38;101453.44;5071890;28;20024;-74
2022/05/26 00:46:07;;;;;;;3.72;1.40;;;;;;;22.47;38.26;101461.06;5071812;28;20067;-74
2022/05/26 00:48:50;;;;;;;11.20;1.90;;;;;;;22.36;38.36;101463.69;5071865;28;20025;-74
2022/05/26 00:51:21;;;;;;;4.47;1.52;;;;;;;22.45;38.28;101457.88;5071794;28;20058;-74
2022/05/26 00:53:52;;;;;;;3.53;1.33;;;;;;;22.37;38.74;101450.59;5071777;28;20036;-73
2022/05/26 00:56:40;;;;;;;9.52;2.20;;;;;;;22.37;38.72;101453.38;5071747;28;20118;-74
2022/05/26 00:59:33;;;;;;;9.70;2.50;;;;;;;22.22;38.90;101457.94;5070403;28;20517;-72
2022/05/26 01:01:59;;;;;;;7.50;1.52;;;;;;;22.29;38.88;101440.50;5071464;28;20082;-72
2022/05/26 01:04:34;;;;;;;9.35;2.15;;;;;;;22.32;38.64;101439.78;5070348;28;20067;-74
2022/05/26 01:07:13;;;;;;;4.93;1.40;;;;;;;22.28;39.07;101438.91;5071626;28;20497;-75
2022/05/26 01:09:39;;;;;;;10.97;2.03;;;;;;;22.31;38.78;101427.84;5071754;28;20596;-73
2022/05/26 01:12:05;;;;;;;7.82;1.73;;;;;;;22.27;38.85;101415.03;5071640;28;20090;-73
2022/05/26 01:14:35;;;;;;;5.75;1.10;;;;;;;22.24;39.00;101433.31;5071509;28;20115;-74
2022/05/26 01:17:28;;;;;;;4.53;1.52;;;;;;;22.18;39.19;101431.22;5052802;28;20064;-74
2022/05/26 01:19:56;;;;;;;7.70;1.45;;;;;;;22.12;39.29;101437.09;5071536;28;20062;-75
2022/05/26 01:22:49;;;;;;;4.40;1.27;;;;;;;22.22;39.18;101440.41;5069970;28;20021;-74
2022/05/26 01:25:20;;;;;;;8.88;1.67;;;;;;;22.26;38.92;101433.72;5083695;28;20512;-73
2022/05/26 01:28:02;;;;;;;7.75;2.05;;;;;;;22.23;39.14;101433.69;5083755;28;20025;-73
2022/05/26 01:30:53;;;;;;;5.40;1.42;;;;;;;22.14;39.63;101423.63;5083861;28;20033;-74
2022/05/26 01:33:34;;;;;;;3.85;1.75;;;;;;;22.26;39.37;101422.59;5060042;28;20025;-74
2022/05/26 01:36:05;;;;;;;6.13;1.77;;;;;;;22.26;39.38;101414.25;5069987;28;20043;-73
2022/05/26 01:39:10;;;;;;;3.25;1.25;;;;;;;22.21;39.42;101416.53;5071620;28;20589;-75
2022/05/26 01:41:57;;;;;;;5.72;1.63;;;;;;;22.25;39.37;101425.75;5074459;28;20039;-74
2022/05/26 01:44:31;;;;;;;6.43;2.08;;;;;;;22.28;39.42;101425.00;5074713;28;20032;-74
2022/05/26 01:47:04;;;;;;;15.82;2.85;;;;;;;22.35;39.35;101422.31;5074858;28;20063;-74
2022/05/26 01:49:43;;;;;;;5.72;1.40;;;;;;;22.39;39.13;101417.59;5074378;28;20028;-74
2022/05/26 01:52:28;;;;;;;6.25;1.40;;;;;;;22.32;39.44;101421.09;5073489;28;20052;-73
2022/05/26 01:55:05;;;;;;;7.75;1.50;;;;;;;22.27;39.72;101415.03;5074215;28;20028;-73
2022/05/26 01:57:40;;;;;;;3.85;1.23;;;;;;;22.14;40.27;101422.81;5074544;28;20036;-74
2022/05/26 02:00:10;;;;;;;9.88;2.35;;;;;;;22.23;39.76;101428.13;5072867;28;20039;-73
2022/05/26 02:02:47;;;;;;;5.50;1.55;;;;;;;22.09;40.33;101423.94;5073692;28;20064;-74
2022/05/26 02:05:18;;;;;;;3.78;1.80;;;;;;;22.17;40.09;101416.50;5064844;28;20523;-73
2022/05/26 02:07:48;;;;;;;6.55;2.08;;;;;;;22.30;39.94;101417.09;5074134;28;20028;-74
2022/05/26 02:10:25;;;;;;;6.78;2.08;;;;;;;22.42;39.44;101420.44;5074058;28;20474;-73
2022/05/26 02:13:15;;;;;;;4.88;1.20;;;;;;;22.30;39.84;101417.88;5072845;28;20036;-80
2022/05/26 02:15:52;;;;;;;4.15;1.35;;;;;;;22.33;40.13;101419.91;5073726;28;20044;-79
2022/05/26 02:18:45;;;;;;;5.40;1.42;;;;;;;22.29;40.28;101413.50;5070082;28;20043;-79
2022/05/26 02:21:41;;;;;;;5.18;1.40;;;;;;;22.35;40.01;101413.97;5054503;28;20021;-78
2022/05/26 02:24:27;;;;;;;6.13;1.92;;;;;;;22.46;40.06;101414.13;5061373;28;20124;-79
2022/05/26 02:26:53;;;;;;;8.13;2.13;;;;;;;22.48;39.93;101415.34;5069744;28;20025;-73
2022/05/26 02:32:05;;;;;;;6.50;1.83;;;;;;;22.42;40.37;101402.91;5070522;28;20030;-77
2022/05/26 02:34:32;;;;;;;4.70;1.60;;;;;;;22.54;40.04;101401.88;5072808;28;20078;-74
2022/05/26 02:36:59;;;;;;;7.38;2.42;;;;;;;22.38;40.87;101404.88;5072663;28;20042;-73
2022/05/26 02:39:25;;;;;;;7.68;1.90;;;;;;;22.47;40.79;101399.00;5070150;28;20029;-75
2022/05/26 02:41:56;;;;;;;5.93;2.17;;;;;;;22.40;41.12;101396.94;5072919;28;20034;-74
2022/05/26 02:44:25;;;;;;;3.78;1.58;;;;;;;22.41;41.06;101387.41;5072077;28;20032;-75
2022/05/26 02:47:03;;;;;;;7.13;2.50;;;;;;;22.49;40.71;101389.09;5072518;28;20025;-73
2022/05/26 02:50:02;;;;;;;6.20;2.30;;;;;;;22.51;41.12;101383.94;5070506;28;20036;-73
2022/05/26 02:52:53;;;;;;;6.25;1.90;;;;;;;22.51;41.28;101381.16;5017690;28;20036;-73
2022/05/26 02:55:27;;;;;;;7.53;2.75;;;;;;;22.48;41.56;101381.91;5071848;28;20032;-75
2022/05/26 02:58:06;;;;;;;6.50;2.10;;;;;;;22.52;40.98;101368.03;5070932;28;20104;-74
2022/05/26 03:00:56;;;;;;;9.57;2.22;;;;;;;22.49;41.51;101371.59;5069449;28;20387;-74
2022/05/26 03:03:27;;;;;;;9.43;3.05;;;;;;;22.58;41.47;101369.28;5071861;28;20526;-74
2022/05/26 03:06:14;;;;;;;7.43;1.90;;;;;;;22.60;41.61;101350.25;5070947;28;20541;-73
2022/05/26 03:08:42;;;;;;;7.10;2.05;;;;;;;22.69;40.94;101353.53;5071877;28;20028;-76
2022/05/26 03:11:11;;;;;;;8.55;2.42;;;;;;;22.76;40.77;101347.25;5070879;28;20020;-73
2022/05/26 03:13:37;;;;;;;5.85;2.47;;;;;;;22.74;41.01;101341.22;5071394;28;20013;-73
2022/05/26 03:16:04;;;;;;;5.30;1.98;;;;;;;22.65;41.52;101333.19;5071712;28;20112;-73
2022/05/26 03:18:30;;;;;;;11.05;2.28;;;;;;;22.51;41.88;101331.03;5071978;28;20449;-73
2022/05/26 03:21:00;;;;;;;8.15;2.40;;;;;;;22.58;41.88;101328.31;5071935;28;20028;-73
2022/05/26 03:23:26;;;;;;;;;;;;;;;22.34;42.78;101338.00;5068787;28;20723;-73
2022/05/26 03:25:57;;;;;;;7.75;2.30;;;;;;;22.42;41.99;101331.31;5071480;28;19920;-73
2022/05/26 03:28:24;;;;;;;5.47;2.03;;;;;;;22.51;41.92;101328.25;5071798;28;20049;-73
2022/05/26 03:30:50;;;;;;;5.47;2.22;;;;;;;22.50;42.36;101323.84;5072022;28;20032;-73
2022/05/26 03:33:16;;;;;;;5.43;2.03;;;;;;;22.54;42.30;101315.56;5071347;28;20082;-73
2022/05/26 03:40:46;;;;;;;3.65;1.50;;;;;;;22.32;42.76;101306.94;5068875;28;20494;-73
2022/05/26 03:41:12;;;;;;;5.38;1.60;;;;;;;22.35;43.14;101310.94;5069166;28;20501;-73
2022/05/26 03:43:43;;;;;;;5.25;1.95;;;;;;;22.42;42.92;101311.03;5071706;28;20025;-73
2022/05/26 03:46:09;;;;;;;6.57;2.00;;;;;;;22.52;42.54;101315.94;5053332;28;20032;-79
2022/05/26 03:48:36;;;;;;;3.58;1.80;;;;;;;22.62;42.37;101304.13;5071946;28;20025;-73
2022/05/26 03:51:02;;;;;;;8.30;1.55;;;;;;;22.67;42.40;101300.16;5072144;28;20056;-78
2022/05/26 03:53:27;;;;;;;5.05;1.80;;;;;;;22.67;42.50;101301.00;5071325;28;20036;-73
2022/05/26 03:55:54;;;;;;;4.68;2.00;;;;;;;22.69;42.56;101304.19;5071639;28;20028;-73
2022/05/26 03:58:20;;;;;;;8.82;2.03;;;;;;;22.73;42.75;101293.06;5071826;28;20032;-79
2022/05/26 04:00:46;;;;;;;2.67;1.20;;;;;;;22.68;42.86;101287.88;5071373;28;20023;-77
2022/05/26 04:03:11;;;;;;;6.90;1.60;;;;;;;22.68;42.82;101285.88;5062849;28;20437;-75
2022/05/26 04:05:37;;;;;;;7.45;2.00;;;;;;;22.61;43.22;101285.81;5071737;28;20103;-72
2022/05/26 04:08:03;;;;;;;6.88;1.85;;;;;;;22.68;43.08;101285.88;5071578;28;20016;-73
2022/05/26 04:10:28;;;;;;;7.90;2.13;;;;;;;22.51;43.89;101280.09;5071621;28;20028;-73
2022/05/26 04:12:55;;;;;;;6.30;2.03;;;;;;;22.59;43.72;101268.66;5069595;28;20112;-73
2022/05/26 04:15:21;;;;;;;3.45;1.30;;;;;;;22.50;44.04;101273.72;5071478;28;20029;-74
2022/05/26 04:17:47;;;;;;;4.03;1.85;;;;;;;22.58;43.99;101271.81;5071218;28;20086;-77
2022/05/26 04:20:17;;;;;;;4.82;1.55;;;;;;;22.57;44.45;101270.22;5071521;28;20028;-78
2022/05/26 04:22:42;;;;;;;3.47;1.20;;;;;;;22.55;44.48;101267.84;5071775;28;20056;-78
2022/05/26 04:25:09;;;;;;;6.82;1.50;;;;;;;22.56;44.51;101268.63;5071486;28;20084;-73
2022/05/26 04:27:35;;;;;;;4.10;1.75;;;;;;;22.48;44.76;101262.19;5071203;28;20093;-74
2022/05/26 04:30:03;;;;;;;5.65;1.88;;;;;;;22.56;44.81;101268.63;5071660;28;20028;-73
2022/05/26 04:32:28;;;;;;;3.42;1.48;;;;;;;22.64;44.79;101270.31;5071274;28;20031;-78
2022/05/26 04:34:54;;;;;;;3.00;1.48;;;;;;;22.66;44.94;101265.16;5071398;28;20032;-73
2022/05/26 04:37:22;;;;;;;1.80;1.25;;;;;;;22.79;44.64;101268.47;5071235;28;20111;-74
2022/05/26 04:39:50;;;;;;;3.13;1.25;;;;;;;22.62;45.10;101272.69;5070250;28;20025;-73
2022/05/26 04:42:17;;;;;;;2.08;1.20;;;;;;;22.69;45.24;101272.75;5071087;28;20032;-73
2022/05/26 04:44:44;;;;;;;3.83;1.63;;;;;;;22.34;46.21;101273.16;5071588;28;20034;-73
2022/05/26 04:47:11;;;;;;;2.47;1.17;;;;;;;22.36;46.11;101273.56;5071451;28;20025;-73
2022/05/26 04:49:37;;;;;;;5.80;1.77;;;;;;;22.55;45.61;101280.94;5070014;28;20029;-73
2022/05/26 04:52:08;;;;;;;3.10;1.38;;;;;;;22.48;46.45;101275.31;5071012;28;20028;-73
2022/05/26 04:54:36;;;;;;;2.70;1.55;;;;;;;22.65;45.76;101269.91;5071269;28;20406;-73
2022/05/26 04:57:02;;;;;;;3.25;1.58;;;;;;;22.73;45.56;101275.56;5070811;28;20469;-74
2022/05/26 04:59:27;;;;;;;3.80;1.52;;;;;;;22.69;45.77;101281.91;5060330;28;20072;-79
2022/05/26 05:01:53;;;;;;;3.85;1.50;;;;;;;22.63;46.40;101286.22;5071198;28;20033;-77
2022/05/26 05:04:23;;;;;;;3.03;1.40;;;;;;;22.73;46.03;101286.69;5071066;28;20036;-73
2022/05/26 05:06:48;;;;;;;3.97;2.00;;;;;;;22.67;46.29;101283.44;5069774;28;20029;-75
2022/05/26 05:09:14;;;;;;;2.88;1.83;;;;;;;22.62;46.78;101281.84;5070833;28;20036;-73
2022/05/26 05:11:40;;;;;;;4.97;2.70;;;;;;;22.48;47.40;101281.69;5070615;28;20036;-79
2022/05/26 05:14:05;;;;;;;4.32;1.70;;;;;;;22.60;46.95;101289.78;5072276;28;20020;-73
2022/05/26 05:16:35;;;;;;;2.75;1.63;;;;;;;22.67;46.82;101289.03;5074733;28;20028;-75
2022/05/26 05:19:01;;;;;;;5.07;1.92;;;;;;;22.71;46.75;101287.09;5074650;28;20021;-72
2022/05/26 05:21:38;;;;;;;2.42;1.38;;;;;;;22.54;47.59;101282.94;5074553;28;20032;-72
2022/05/26 05:24:19;;;;;;;3.25;1.45;;;;;;;22.71;47.42;101290.69;5074641;28;20067;-72
2022/05/26 05:26:50;;;;;;;3.45;1.50;;;;;;;22.77;47.02;101287.56;5074526;28;20111;-72
2022/05/26 05:29:20;;;;;;;3.55;1.50;;;;;;;22.86;46.75;101293.63;5074305;28;20020;-71
2022/05/26 05:31:55;;;;;;;4.03;1.70;;;;;;;22.83;47.29;101291.59;5074535;28;20035;-74
2022/05/26 05:34:26;;;;;;;3.67;1.83;;;;;;;22.82;47.48;101281.59;5073086;28;20032;-72
2022/05/26 05:36:52;;;;;;;2.35;1.50;;;;;;;22.82;47.72;101285.22;5074407;28;20032;-70
2022/05/26 05:39:18;;;;;;;2.00;1.45;;;;;;;22.81;47.60;101288.38;5074266;28;20413;-71
2022/05/26 05:41:44;;;;;;;4.55;1.63;;;;;;;22.92;47.55;101292.91;5074356;28;20402;-74
2022/05/26 05:44:10;;;;;;;2.97;1.33;;;;;;;23.06;46.96;101288.66;5073872;28;20037;-73
2022/05/26 05:46:53;;;;;;;1.63;1.20;;;;;;;23.01;47.47;101289.78;5073949;28;20040;-72
2022/05/26 05:49:23;;;;;;;3.13;1.30;;;;;;;22.97;47.61;101294.53;5074247;28;20108;-73
2022/05/26 05:51:50;;;;;;;1.98;1.48;;;;;;;22.87;48.16;101295.22;5073005;28;20032;-73
2022/05/26 05:54:16;;;;;;;2.58;1.50;;;;;;;23.06;47.42;101300.59;5073914;28;20089;-73
2022/05/26 05:56:41;;;;;;;2.15;1.15;;;;;;;23.00;47.99;101295.75;5073880;28;20138;-73
2022/05/26 05:59:07;;;;;;;1.63;1.00;;;;;;;22.95;48.19;101296.91;5074120;28;20107;-73
2022/05/26 06:01:33;;;;;;;1.80;1.15;;;;;;;22.97;48.19;101302.88;5073491;28;20032;-79
2022/05/26 06:03:59;;;;;;;2.15;1.10;;;;;;;23.06;48.07;101311.75;5073320;28;20020;-75
2022/05/26 06:06:25;;;;;;;3.40;1.42;;;;;;;23.00;48.53;101299.34;5073802;28;20046;-80
2022/05/26 06:08:50;;;;;;;5.30;1.88;;;;;;;23.07;48.70;101312.53;5074850;28;20498;-72
2022/05/26 06:11:16;;;;;;;4.55;1.63;;;;;;;23.05;48.57;101306.53;5074451;28;20024;-74
2022/05/26 06:13:41;;;;;;;2.72;1.52;;;;;;;23.12;48.60;101312.16;5073009;28;20505;-72
2022/05/26 06:16:07;;;;;;;4.13;1.50;;;;;;;23.24;48.00;101309.09;5074166;28;20123;-76
2022/05/26 06:18:32;;;;;;;2.40;1.25;;;;;;;23.19;48.60;101313.03;5072768;28;20495;-73
2022/05/26 06:21:06;;;;;;;1.90;0.93;;;;;;;23.21;48.58;101309.88;5073970;28;20104;-73
2022/05/26 06:23:32;;;;;;;1.00;0.90;;;;;;;23.25;48.71;101305.91;5074253;28;20021;-73
2022/05/26 06:25:59;;;;;;;2.03;1.30;;;;;;;23.37;48.51;101317.97;5073521;28;20036;-72
2022/05/26 06:31:09;;;;;;;3.15;1.30;;;;;;;23.47;48.67;101308.88;5068804;28;20526;-79
2022/05/26 06:39:09;;;;;;;1.58;0.90;;;;;;;23.42;49.21;101328.75;5074016;28;20078;-78
2022/05/26 06:44:19;;;;;;;2.53;0.93;;;;;;;23.62;48.31;101332.94;5054176;28;20288;-71
2022/05/26 06:46:44;;;;;;;2.47;1.60;;;;;;;23.46;48.90;101340.75;5064614;28;20028;-71
2022/05/26 06:49:10;;;;;;;2.72;1.13;;;;;;;23.49;48.92;101337.19;5072243;28;20542;-72
2022/05/26 06:51:39;;;;;;;2.60;1.20;;;;;;;23.57;48.77;101333.25;5073056;28;20079;-71
2022/05/26 06:54:08;;;;;;;1.25;0.80;;;;;;;23.50;48.76;101335.97;5072384;28;20021;-73
2022/05/26 06:56:34;;;;;;;0.68;0.63;;;;;;;23.88;47.50;101343.06;5073381;28;20036;-71
2022/05/26 06:58:59;;;;;;;1.83;0.82;;;;;;;23.75;48.11;101339.00;5071946;28;20028;-71
2022/05/26 07:01:26;;;;;;;2.47;0.80;;;;;;;23.70;48.09;101339.34;5072170;28;20043;-72
2022/05/26 07:03:51;;;;;;;1.08;0.88;;;;;;;23.60;48.51;101337.28;5073055;28;20033;-72
2022/05/26 07:06:20;;;;;;;1.20;0.70;;;;;;;23.66;48.17;101342.13;5073376;28;20039;-72
2022/05/26 07:08:47;;;;;;;0.40;0.40;;;;;;;23.64;48.64;101338.91;5073162;28;20050;-71
2022/05/26 07:11:14;;;;;;;1.00;0.40;;;;;;;23.61;48.44;101350.84;5087796;28;20032;-72
2022/05/26 07:13:40;;;;;;;1.77;0.60;;;;;;;23.79;48.23;101348.97;5092852;28;20035;-74
2022/05/26 07:16:07;;;;;;;1.00;0.90;;;;;;;24.04;47.47;101346.34;5073202;28;20028;-73
2022/05/26 07:18:33;;;;;;;1.00;0.68;;;;;;;24.17;47.46;101351.59;5071152;28;20025;-74
2022/05/26 07:21:02;;;;;;;1.92;0.80;;;;;;;24.21;47.16;101358.81;5075662;28;20042;-74
2022/05/26 07:23:29;;;;;;;1.30;0.70;;;;;;;23.72;48.47;101354.50;5077826;28;20028;-74
2022/05/26 07:25:56;;;;;;;0.88;0.60;;;;;;;24.00;48.00;101364.25;5075989;28;20040;-74
2022/05/26 07:28:23;;;;;;;1.23;0.82;;;;;;;24.03;47.73;101364.31;5077673;28;20387;-73
2022/05/26 07:30:49;;;;;;;2.20;0.60;;;;;;;23.97;48.22;101365.06;5068027;28;20031;-76
2022/05/26 07:33:15;;;;;;;0.60;0.57;;;;;;;23.67;48.96;101362.47;5072693;28;20077;-73
2022/05/26 07:35:41;;;;;;;1.17;0.70;;;;;;;23.84;48.55;101363.78;5072582;28;20471;-73
2022/05/26 07:43:37;;;;;;;2.15;0.50;;;;;;;24.25;47.24;101378.34;5072369;28;20086;-78
2022/05/26 07:46:03;;;;;;;0.82;0.50;;;;;;;24.56;46.07;101376.91;5072928;28;20028;-74
2022/05/26 07:48:29;;;;;;;1.92;0.60;;;;;;;24.30;46.65;101373.19;5071553;28;20032;-73
2022/05/26 07:50:55;;;;;;;3.58;1.63;;;;;;;24.23;46.89;101387.13;5072800;28;20020;-80
2022/05/26 07:53:20;;;;;;;1.42;0.47;;;;;;;24.69;45.80;101388.56;5072748;28;20078;-80
2022/05/26 07:55:50;;;;;;;1.90;0.60;;;;;;;24.28;46.60;101391.56;5072263;28;20032;-76
2022/05/26 07:58:17;;;;;;;0.40;0.40;;;;;;;24.16;46.75;101391.88;5072384;28;20023;-73
2022/05/26 08:00:43;;;;;;;1.33;0.85;;;;;;;24.02;47.06;101392.56;5069540;28;20020;-73
2022/05/26 08:03:09;;;;;;;0.40;0.40;;;;;;;24.41;46.27;101387.25;5070674;28;20642;-73
2022/05/26 08:05:36;;;;;;;0.93;0.65;;;;;;;24.44;46.31;101394.06;5070945;28;20425;-73
2022/05/26 08:08:02;;;;;;;1.27;0.70;;;;;;;24.38;46.45;101401.19;5070062;28;20414;-79
2022/05/26 08:10:28;;;;;;;0.98;0.52;;;;;;;24.09;47.15;101392.63;5069408;28;20035;-74
2022/05/26 08:12:54;;;;;;;2.08;0.60;;;;;;;23.75;47.91;101395.59;5069578;28;20468;-74
2022/05/26 08:15:19;;;;;;;0.40;0.32;;;;;;;23.84;48.01;101409.22;5067294;28;20028;-73
2022/05/26 08:17:45;;;;;;;1.50;0.80;;;;;;;23.97;47.38;101406.91;5069438;28;20023;-73
2022/05/26 08:20:11;;;;;;;1.45;0.57;;;;;;;24.34;46.43;101410.38;5069716;28;20116;-73
2022/05/26 08:22:36;;;;;;;0.40;0.40;;;;;;;24.77;45.62;101404.16;5069562;28;20036;-72
2022/05/26 08:25:03;;;;;;;5.45;0.95;;;;;;;24.88;45.34;101403.00;5070883;28;20051;-73
2022/05/26 08:27:28;;;;;;;1.23;0.50;;;;;;;25.02;45.25;101412.63;5071020;28;20037;-73
2022/05/26 08:29:54;;;;;;;3.33;0.60;;;;;;;25.02;45.55;101418.22;5072345;28;20024;-73
2022/05/26 08:32:21;;;;;;;1.23;0.80;;;;;;;24.92;45.18;101428.16;5072216;28;20024;-73
2022/05/26 08:34:48;;;;;;;0.50;0.50;;;;;;;24.86;45.91;101427.75;5070465;28;20097;-73
2022/05/26 08:37:15;;;;;;;2.30;0.68;;;;;;;25.08;45.21;101411.03;5070650;28;20021;-72
2022/05/26 08:39:41;;;;;;;0.65;0.47;;;;;;;25.30;44.66;101423.06;5070566;28;20032;-78
2022/05/26 08:42:15;;;;;;;0.80;0.30;;;;;;;25.07;46.02;101412.25;5070919;28;20032;-73
2022/05/26 08:44:42;;;;;;;0.30;0.30;;;;;;;25.25;45.84;101434.69;5070853;28;20025;-73
2022/05/26 08:47:16;;;;;;;0.40;0.40;;;;;;;25.43;45.33;101424.28;5070974;28;20032;-73
2022/05/26 08:50:04;;;;;;;1.25;0.50;;;;;;;25.44;45.63;101423.09;5074925;28;20510;-73
2022/05/26 08:52:34;;;;;;;1.35;0.40;;;;;;;24.61;47.86;101430.44;5076099;28;20024;-72
2022/05/26 08:55:15;;;;;;;0.68;0.50;;;;;;;25.27;45.80;101430.28;5074942;28;20025;-74
2022/05/26 08:57:52;;;;;;;0.65;0.55;;;;;;;25.17;45.84;101436.66;5074472;28;20040;-73
2022/05/26 09:00:22;;;;;;;1.45;0.30;;;;;;;25.08;46.10;101445.41;5075632;28;20102;-72
2022/05/26 09:02:57;;;;;;;1.38;0.50;;;;;;;25.13;45.69;101447.03;5073314;28;20476;-73
2022/05/26 09:05:23;;;;;;;2.00;0.65;;;;;;;24.75;46.32;101454.06;5071702;28;20029;-73
2022/05/26 09:14:07;;;;;;;0.52;0.50;;;;;;;24.76;46.24;101467.63;5075537;28;20123;-74
2022/05/26 09:16:40;;;;;;;0.43;0.40;;;;;;;24.58;46.92;101463.97;5073039;28;20135;-74
2022/05/26 09:19:21;;;;;;;2.40;0.70;;;;;;;25.08;46.01;101466.97;5071906;28;20017;-74
2022/05/26 09:21:49;;;;;;;0.90;0.30;;;;;;;24.70;47.05;101473.97;5071941;28;20029;-74
2022/05/26 09:24:24;;;;;;;0.38;0.38;;;;;;;25.00;46.40;101477.28;5072542;28;20499;-74
2022/05/26 09:26:57;;;;;;;7.95;1.55;;;;;;;25.29;45.77;101472.63;5072227;28;20074;-76
2022/05/26 09:29:25;;;;;;;2.75;0.85;;;;;;;25.26;46.05;101473.44;5074134;28;20077;-74
2022/05/26 09:31:51;;;;;;;1.95;0.85;;;;;;;24.90;46.58;101473.28;5072750;28;20617;-74
2022/05/26 09:34:20;;;;;;;2.10;1.23;;;;;;;24.92;46.75;101472.88;5073772;28;20119;-74
2022/05/26 09:36:52;;;;;;;1.08;0.40;;;;;;;25.23;46.20;101474.19;5071442;28;20111;-74
2022/05/26 09:39:24;;;;;;;0.65;0.40;;;;;;;25.34;46.62;101480.63;5073789;28;20028;-74
2022/05/26 09:41:53;;;;;;;1.65;0.40;;;;;;;25.54;46.27;101483.06;5072201;28;20047;-74
2022/05/26 09:44:46;;;;;;;1.67;0.40;;;;;;;25.49;45.91;101475.06;5073551;28;20248;-75
2022/05/26 09:47:40;;;;;;;0.00;0.00;;;;;;;24.85;47.06;101484.03;5068204;28;20040;-76
2022/05/26 09:50:37;;;;;;;0.82;0.22;;;;;;;25.61;45.99;101483.84;5052324;28;20145;-81
2022/05/26 09:53:09;;;;;;;1.90;0.50;;;;;;;25.29;45.35;101478.22;5072576;28;20056;-79
2022/05/26 09:55:46;;;;;;;0.10;0.10;;;;;;;25.75;44.26;101482.31;5073944;28;20067;-77
2022/05/26 09:58:34;;;;;;;0.20;0.20;;;;;;;25.67;44.61;101496.25;5072727;28;20036;-78
2022/05/26 10:01:02;;;;;;;0.10;0.10;;;;;;;25.73;44.64;101485.50;5073242;28;20066;-76
2022/05/26 10:03:45;;;;;;;4.37;0.30;;;;;;;25.68;44.20;101488.66;5072767;28;20024;-76
2022/05/26 10:06:17;;;;;;;1.25;0.38;;;;;;;26.22;43.14;101483.88;5073066;28;20487;-78
2022/05/26 10:08:58;;;;;;;0.20;0.20;;;;;;;26.38;43.10;101491.88;5074056;28;20044;-75
2022/05/26 10:11:41;;;;;;;0.40;0.20;;;;;;;26.49;42.87;101501.06;5073602;28;20380;-73
2022/05/26 10:14:32;;;;;;;0.47;0.30;;;;;;;26.67;42.31;101504.63;5073664;28;20434;-75
2022/05/26 10:17:13;;;;;;;0.45;0.30;;;;;;;26.38;42.14;101512.28;5052954;28;20037;-74
2022/05/26 10:20:00;;;;;;;0.63;0.20;;;;;;;26.22;41.59;101517.50;5053678;28;20021;-73
2022/05/26 10:22:38;;;;;;;0.30;0.30;;;;;;;25.96;42.22;101515.91;5052333;28;20116;-74
2022/05/26 10:25:10;;;;;;;1.45;0.28;;;;;;;25.90;42.72;101523.91;5057322;28;20037;-81
2022/05/26 10:28:03;;;;;;;0.08;0.08;;;;;;;26.04;42.11;101530.72;5073828;28;20032;-77
2022/05/26 10:30:56;;;;;;;0.40;0.40;;;;;;;26.38;41.63;101514.28;5072080;28;20040;-74
2022/05/26 10:33:51;;;;;;;0.20;0.13;;;;;;;26.47;41.45;101518.28;5072197;28;20021;-75
2022/05/26 10:36:54;;;;;;;0.47;0.30;;;;;;;26.43;41.30;101525.91;5072912;28;20045;-76
2022/05/26 10:40:11;;;;;;;0.10;0.10;;;;;;;26.93;40.46;101528.56;5072084;28;20035;-77
2022/05/26 10:42:50;;;;;;;1.05;0.40;;;;;;;26.58;40.87;101523.06;5071554;28;20107;-78
2022/05/26 10:45:31;;;;;;;3.42;1.00;;;;;;;27.04;40.28;101523.72;5072936;28;20107;-79
2022/05/26 10:48:08;;;;;;;1.85;0.45;;;;;;;26.88;40.59;101523.38;5072029;28;20033;-77
2022/05/26 10:50:52;;;;;;;1.65;0.60;;;;;;;26.74;39.99;101537.44;5072987;28;20021;-77
2022/05/26 10:53:36;;;;;;;0.38;0.30;;;;;;;27.15;39.56;101540.53;5073005;28;20379;-76
2022/05/26 10:56:46;;;;;;;0.15;0.13;;;;;;;27.16;38.28;101547.75;5072546;28;20048;-77
2022/05/26 10:59:24;;;;;;;0.90;0.40;;;;;;;27.27;37.80;101539.25;5050170;28;20035;-75
2022/05/26 11:01:59;;;;;;;1.02;0.35;;;;;;;27.23;37.46;101546.91;5049503;28;20037;-76
2022/05/26 11:04:35;;;;;;;0.22;0.20;;;;;;;26.94;38.22;101544.19;5044117;28;20033;-75
2022/05/26 11:07:11;;;;;;;2.40;1.02;;;;;;;27.50;37.23;101545.16;5071499;28;20434;-77
2022/05/26 11:09:45;;;;;;;1.05;0.40;;;;;;;27.53;37.17;101555.56;5071712;28;20017;-78
2022/05/26 11:12:18;;;;;;;0.30;0.25;;;;;;;27.22;37.59;101553.72;5072468;28;20405;-77
2022/05/26 11:17:50;;;;;;;5.50;0.70;;;;;;;26.79;37.97;101562.25;5051696;28;20063;-79
2022/05/26 11:20:20;;;;;;;0.60;0.38;;;;;;;27.30;37.13;101564.50;5052566;28;20029;-79
2022/05/26 11:22:48;;;;;;;2.00;0.40;;;;;;;26.95;37.77;101562.59;5071785;28;20044;-78
2022/05/26 11:25:35;;;;;;;2.97;0.60;;;;;;;26.71;38.36;101567.09;5071821;28;20044;-77
2022/05/26 11:28:23;;;;;;;0.20;0.20;;;;;;;26.94;37.38;101571.44;5072021;28;20108;-78
2022/05/26 11:36:48;;;;;;;6.47;0.98;;;;;;;27.47;36.41;101581.66;5072071;28;20488;-77
2022/05/26 11:39:24;;;;;;;7.38;1.10;;;;;;;27.41;36.42;101594.50;5071554;28;20561;-75
2022/05/26 11:42:04;;;;;;;0.30;0.15;;;;;;;27.32;36.04;101590.16;5071726;28;20475;-76
2022/05/26 11:44:42;;;;;;;2.47;0.65;;;;;;;27.26;36.49;101596.59;5081878;28;20024;-76
2022/05/26 11:47:48;;;;;;;2.17;0.55;;;;;;;27.03;36.85;101594.22;5052907;28;20037;-76
2022/05/26 11:50:32;;;;;;;1.08;0.32;;;;;;;27.15;37.09;101595.84;5101388;28;20051;-75
2022/05/26 11:53:01;;;;;;;0.63;0.22;;;;;;;27.51;36.52;101608.50;5070012;28;20052;-75
2022/05/26 11:55:32;;;;;;;0.55;0.28;;;;;;;27.13;37.50;101601.03;5070341;28;20032;-74
2022/05/26 11:58:17;;;;;;;1.95;0.63;;;;;;;27.25;36.75;101606.22;5071995;28;20024;-75
2022/05/26 12:00:45;;;;;;;3.58;0.70;;;;;;;27.05;37.05;101589.88;5071180;28;20487;-75
2022/05/26 12:03:22;;;;;;;1.27;0.32;;;;;;;26.65;37.36;101593.13;5072598;28;20033;-74
2022/05/26 12:06:05;;;;;;;2.03;0.40;;;;;;;26.86;36.17;101595.09;5072437;28;20105;-74
2022/05/26 12:08:36;;;;;;;1.23;0.32;;;;;;;27.16;36.06;101605.84;5072482;28;20395;-74
2022/05/26 12:11:06;;;;;;;5.18;0.85;;;;;;;27.92;35.10;101611.50;5072436;28;20295;-75
2022/05/26 12:13:35;;;;;;;4.72;1.38;;;;;;;28.38;34.43;101618.00;5071773;28;20035;-75
2022/05/26 12:16:17;;;;;;;1.17;0.65;;;;;;;28.82;33.73;101611.56;5072091;28;20079;-75
2022/05/26 12:18:53;;;;;;;5.43;1.00;;;;;;;28.25;33.77;101625.31;5069765;28;20486;-77
2022/05/26 12:21:46;;;;;;;2.58;0.80;;;;;;;27.91;33.98;101617.53;5072282;28;20074;-75
2022/05/26 12:24:33;;;;;;;2.22;0.32;;;;;;;27.56;33.11;101633.31;5076318;28;20024;-75
2022/05/26 12:27:02;;;;;;;5.57;0.82;;;;;;;27.55;33.12;101609.28;5077793;28;20035;-75
2022/05/26 12:29:57;;;;;;;;;;;;;;;27.36;32.74;101612.59;5080994;28;20073;-75